createdAt,value
2023-03-27T00:02:28.900Z,11.77
2023-03-27T00:04:56.841Z,9.60
2023-03-27T00:07:24.670Z,10.90
2023-03-27T00:09:53.431Z,13.37
2023-03-27T00:12:21.259Z,11.50
2023-03-27T00:14:49.127Z,9.47
2023-03-27T00:17:19.296Z,13.40
2023-03-27T00:19:47.167Z,6.57
2023-03-27T00:22:15.715Z,13.70
2023-03-27T00:24:43.612Z,13.23
2023-03-27T00:27:11.504Z,11.27
2023-03-27T00:29:39.763Z,13.53
2023-03-27T00:32:08.217Z,14.73
2023-03-27T00:34:37.524Z,7.60
2023-03-27T00:37:05.776Z,9.13
2023-03-27T00:39:34.195Z,9.67
2023-03-27T00:42:02.022Z,11.23
2023-03-27T00:44:34.198Z,12.63
2023-03-27T00:47:04.987Z,12.63
2023-03-27T00:49:37.035Z,9.53
2023-03-27T00:52:08.436Z,15.17
2023-03-27T00:54:40.220Z,11.00
2023-03-27T00:57:13.747Z,9.67
2023-03-27T00:59:44.614Z,12.07
2023-03-27T01:02:14.540Z,9.33
2023-03-27T01:04:44.004Z,11.50
2023-03-27T01:07:14.124Z,13.33
2023-03-27T01:09:42.323Z,8.53
2023-03-27T01:12:29.308Z,8.47
2023-03-27T01:15:15.368Z,9.90
2023-03-27T01:21:08.986Z,14.60
2023-03-27T01:24:11.406Z,10.67
2023-03-27T01:26:57.876Z,10.90
2023-03-27T01:29:50.574Z,11.63
2023-03-27T01:32:46.013Z,9.67
2023-03-27T01:35:51.138Z,13.83
2023-03-27T01:38:48.487Z,11.57
2023-03-27T01:41:25.850Z,12.87
2023-03-27T01:43:59.373Z,11.13
2023-03-27T01:46:36.101Z,10.80
2023-03-27T01:49:09.437Z,14.97
2023-03-27T01:51:39.942Z,8.57
2023-03-27T01:54:15.784Z,10.80
2023-03-27T01:56:53.539Z,8.60
2023-03-27T01:59:27.153Z,15.13
2023-03-27T02:02:01.543Z,14.30
2023-03-27T02:04:36.509Z,11.80
2023-03-27T02:07:10.991Z,10.47
2023-03-27T02:09:44.481Z,16.83
2023-03-27T02:12:19.724Z,10.93
2023-03-27T02:14:54.827Z,7.17
2023-03-27T02:17:26.297Z,11.63
2023-03-27T02:19:59.459Z,9.30
2023-03-27T02:22:38.158Z,15.37
2023-03-27T02:25:25.098Z,11.17
2023-03-27T02:28:03.762Z,12.57
2023-03-27T02:30:38.148Z,10.10
2023-03-27T02:33:18.897Z,9.87
2023-03-27T02:35:57.480Z,9.13
2023-03-27T02:38:33.343Z,13.70
2023-03-27T02:41:08.866Z,12.00
2023-03-27T02:44:01.015Z,13.73
2023-03-27T02:46:58.473Z,12.73
2023-03-27T02:49:32.499Z,11.67
2023-03-27T02:52:06.274Z,12.50
2023-03-27T02:54:39.698Z,9.03
2023-03-27T02:57:12.025Z,10.83
2023-03-27T03:00:04.837Z,12.30
2023-03-27T03:02:38.452Z,10.40
2023-03-27T03:05:10.107Z,10.80
2023-03-27T03:07:40.220Z,11.20
2023-03-27T03:10:11.461Z,12.87
2023-03-27T03:12:39.392Z,11.03
2023-03-27T03:15:10.613Z,15.63
2023-03-27T03:17:38.829Z,13.53
2023-03-27T03:20:09.797Z,17.73
2023-03-27T03:22:39.975Z,8.60
2023-03-27T03:25:09.090Z,15.27
2023-03-27T03:27:37.079Z,12.97
2023-03-27T03:30:17.277Z,9.17
2023-03-27T03:33:00.151Z,10.07
2023-03-27T03:35:28.255Z,10.97
2023-03-27T03:37:59.369Z,11.57
2023-03-27T03:40:28.290Z,11.40
2023-03-27T03:42:59.327Z,14.03
2023-03-27T03:45:31.391Z,13.20
2023-03-27T03:48:00.996Z,10.50
2023-03-27T03:50:28.986Z,8.97
2023-03-27T03:52:56.892Z,12.40
2023-03-27T03:55:25.644Z,11.93
2023-03-27T03:57:53.554Z,14.40
2023-03-27T04:00:26.752Z,10.37
2023-03-27T04:02:58.639Z,13.50
2023-03-27T04:05:27.070Z,12.20
2023-03-27T04:07:59.312Z,10.80
2023-03-27T04:10:45.658Z,16.73
2023-03-27T04:13:22.280Z,11.47
2023-03-27T04:16:01.568Z,13.03
2023-03-27T04:18:40.754Z,16.90
2023-03-27T04:21:14.737Z,11.47
2023-03-27T04:23:43.898Z,9.87
2023-03-27T04:26:16.144Z,13.67
2023-03-27T04:29:10.278Z,9.60
2023-03-27T04:32:07.414Z,11.50
2023-03-27T04:34:42.447Z,9.33
2023-03-27T04:37:23.487Z,12.53
2023-03-27T04:40:13.200Z,9.93
2023-03-27T04:42:43.918Z,10.43
2023-03-27T04:45:14.513Z,9.93
2023-03-27T04:47:45.285Z,8.63
2023-03-27T04:50:15.393Z,11.37
2023-03-27T04:52:44.811Z,10.37
2023-03-27T04:55:12.868Z,10.47
2023-03-27T04:57:47.004Z,11.57
2023-03-27T05:00:19.041Z,10.30
2023-03-27T05:02:47.665Z,10.27
2023-03-27T05:05:33.196Z,10.30
2023-03-27T05:08:01.443Z,14.67
2023-03-27T05:10:29.289Z,10.40
2023-03-27T05:12:58.479Z,13.07
2023-03-27T05:15:27.684Z,9.73
2023-03-27T05:17:56.460Z,9.73
2023-03-27T05:20:26.681Z,13.53
2023-03-27T05:22:57.202Z,9.87
2023-03-27T05:25:30.969Z,11.13
2023-03-27T05:28:00.934Z,8.87
2023-03-27T05:30:34.278Z,9.50
2023-03-27T05:33:22.167Z,7.63
2023-03-27T05:35:52.401Z,9.30
2023-03-27T05:38:22.714Z,6.87
2023-03-27T05:41:09.931Z,11.13
2023-03-27T05:43:42.232Z,11.83
2023-03-27T05:46:10.232Z,6.57
2023-03-27T05:48:39.376Z,8.80
2023-03-27T05:51:09.390Z,15.43
2023-03-27T05:53:39.660Z,12.67
2023-03-27T05:56:30.726Z,10.17
2023-03-27T05:59:01.405Z,9.93
2023-03-27T06:01:30.619Z,7.17
2023-03-27T06:04:00.517Z,9.13
2023-03-27T06:06:33.881Z,10.67
2023-03-27T06:09:03.759Z,10.43
2023-03-27T06:11:32.730Z,11.17
2023-03-27T06:14:00.671Z,8.93
2023-03-27T06:16:43.734Z,9.20
2023-03-27T06:19:34.134Z,7.80
2023-03-27T06:22:02.140Z,8.87
2023-03-27T06:24:31.546Z,11.00
2023-03-27T06:27:01.107Z,9.93
2023-03-27T06:29:31.847Z,8.80
2023-03-27T06:32:01.526Z,13.50
2023-03-27T06:34:34.255Z,5.73
2023-03-27T06:37:28.029Z,9.03
2023-03-27T06:39:57.684Z,10.33
2023-03-27T06:42:26.368Z,6.80
2023-03-27T06:45:07.954Z,8.57
2023-03-27T06:48:21.339Z,9.03
2023-03-27T06:50:54.133Z,8.07
2023-03-27T06:55:56.541Z,6.20
2023-03-27T06:58:25.630Z,6.70
2023-03-27T07:00:54.030Z,7.97
2023-03-27T07:03:23.997Z,15.63
2023-03-27T07:06:10.944Z,6.97
2023-03-27T07:08:51.673Z,4.67
2023-03-27T07:11:21.308Z,7.57
2023-03-27T07:13:56.579Z,9.57
2023-03-27T07:16:28.234Z,9.07
2023-03-27T07:18:58.375Z,8.80
2023-03-27T07:21:28.874Z,8.33
2023-03-27T07:23:59.879Z,9.53
2023-03-27T07:26:39.018Z,7.20
2023-03-27T07:29:15.012Z,10.97
2023-03-27T07:31:56.995Z,12.37
2023-03-27T07:34:38.376Z,6.80
2023-03-27T07:37:40.407Z,6.60
2023-03-27T07:40:38.803Z,5.13
2023-03-27T07:43:29.188Z,7.13
2023-03-27T07:45:57.796Z,10.07
2023-03-27T07:48:27.836Z,5.13
2023-03-27T07:51:03.955Z,6.30
2023-03-27T07:53:41.510Z,5.47
2023-03-27T07:56:15.943Z,7.37
2023-03-27T07:58:48.946Z,6.77
2023-03-27T08:01:21.393Z,6.67
2023-03-27T08:03:49.546Z,6.00
2023-03-27T08:06:19.840Z,6.50
2023-03-27T08:08:48.262Z,6.57
2023-03-27T08:11:27.814Z,5.63
2023-03-27T08:14:00.435Z,4.60
2023-03-27T08:16:30.067Z,6.33
2023-03-27T08:19:00.695Z,5.00
2023-03-27T08:21:31.872Z,5.30
2023-03-27T08:24:00.574Z,8.83
2023-03-27T08:26:51.463Z,7.80
2023-03-27T08:29:21.395Z,5.83
2023-03-27T08:31:49.212Z,8.33
2023-03-27T08:34:17.593Z,8.27
2023-03-27T08:36:47.946Z,5.10
2023-03-27T08:39:17.100Z,6.83
2023-03-27T08:41:56.011Z,5.60
2023-03-27T08:44:34.108Z,5.43
2023-03-27T08:47:14.384Z,6.87
2023-03-27T08:50:22.580Z,4.80
2023-03-27T08:52:54.044Z,6.27
2023-03-27T08:55:38.136Z,6.43
2023-03-27T08:58:20.771Z,6.17
2023-03-27T09:01:02.106Z,7.10
2023-03-27T09:03:36.510Z,5.17
2023-03-27T09:06:11.551Z,7.60
2023-03-27T09:08:54.503Z,7.27
2023-03-27T09:11:35.756Z,4.20
2023-03-27T09:14:16.708Z,5.00
2023-03-27T09:16:50.347Z,4.07
2023-03-27T09:19:45.087Z,7.37
2023-03-27T09:22:22.364Z,4.80
2023-03-27T09:25:08.379Z,5.90
2023-03-27T09:28:03.461Z,3.43
2023-03-27T09:30:45.294Z,6.03
2023-03-27T09:33:24.131Z,4.07
2023-03-27T09:35:52.904Z,3.77
2023-03-27T09:38:29.083Z,4.30
2023-03-27T09:41:02.878Z,3.23
2023-03-27T09:43:41.521Z,6.80
2023-03-27T09:46:14.020Z,3.60
2023-03-27T09:48:50.326Z,4.50
2023-03-27T09:51:45.609Z,5.33
2023-03-27T09:54:25.254Z,3.90
2023-03-27T09:56:59.503Z,2.20
2023-03-27T09:59:30.019Z,3.53
2023-03-27T10:02:18.466Z,8.77
2023-03-27T10:05:01.464Z,4.07
2023-03-27T10:07:34.589Z,5.90
2023-03-27T10:10:22.259Z,3.40
2023-03-27T10:13:20.826Z,5.33
2023-03-27T10:15:59.835Z,3.00
2023-03-27T10:18:36.183Z,2.67
2023-03-27T10:21:17.780Z,3.97
2023-03-27T10:23:49.245Z,3.27
2023-03-27T10:26:38.152Z,2.90
2023-03-27T10:29:21.234Z,2.87
2023-03-27T10:31:52.033Z,1.97
2023-03-27T10:34:54.281Z,2.57
2023-03-27T10:37:51.314Z,3.23
2023-03-27T10:40:52.200Z,2.60
2023-03-27T10:43:35.239Z,6.73
2023-03-27T10:46:07.125Z,3.33
2023-03-27T10:48:47.163Z,3.40
2023-03-27T10:51:43.138Z,3.67
2023-03-27T10:54:32.290Z,2.47
2023-03-27T10:57:04.238Z,3.10
2023-03-27T10:59:42.144Z,5.28
2023-03-27T11:02:29.030Z,2.42
2023-03-27T11:05:02.855Z,3.10
2023-03-27T11:07:37.874Z,4.38
2023-03-27T11:10:17.874Z,4.72
2023-03-27T11:12:54.704Z,4.78
2023-03-27T11:15:29.997Z,2.20
2023-03-27T11:18:01.924Z,3.80
2023-03-27T11:20:47.347Z,2.47
2023-03-27T11:23:32.078Z,2.55
2023-03-27T11:26:36.672Z,5.38
2023-03-27T11:29:09.565Z,3.65
2023-03-27T11:31:49.272Z,2.95
2023-03-27T11:34:43.685Z,3.63
2023-03-27T11:37:39.629Z,4.00
2023-03-27T11:40:14.651Z,3.03
2023-03-27T11:42:46.542Z,2.97
2023-03-27T11:45:17.931Z,4.30
2023-03-27T11:47:59.315Z,3.60
2023-03-27T11:50:39.273Z,2.83
2023-03-27T11:53:27.260Z,2.53
2023-03-27T11:56:39.814Z,2.88
2023-03-27T11:59:34.757Z,3.03
2023-03-27T12:02:20.672Z,1.65
2023-03-27T12:04:55.616Z,4.37
2023-03-27T12:08:00.854Z,2.90
2023-03-27T12:10:32.879Z,2.10
2023-03-27T12:13:46.214Z,1.63
2023-03-27T12:17:00.295Z,4.15
2023-03-27T12:20:17.001Z,1.10
2023-03-27T12:23:03.975Z,2.40
2023-03-27T12:26:09.976Z,1.42
2023-03-27T12:29:23.580Z,4.53
2023-03-27T12:32:16.411Z,0.95
2023-03-27T12:34:53.238Z,2.15
2023-03-27T12:37:27.705Z,1.67
2023-03-27T12:39:59.010Z,1.45
2023-03-27T12:42:53.582Z,2.40
2023-03-27T12:45:27.401Z,1.92
2023-03-27T12:48:19.508Z,3.35
2023-03-27T12:50:57.250Z,2.25
2023-03-27T12:53:49.198Z,4.22
2023-03-27T12:56:41.153Z,3.08
2023-03-27T12:59:22.235Z,4.43
2023-03-27T13:02:31.920Z,1.73
2023-03-27T13:05:30.041Z,2.20
2023-03-27T13:08:29.148Z,2.17
2023-03-27T13:11:18.253Z,6.60
2023-03-27T13:14:32.962Z,4.80
2023-03-27T13:17:29.182Z,1.15
2023-03-27T13:20:10.071Z,1.65
2023-03-27T13:23:04.184Z,3.70
2023-03-27T13:25:56.108Z,1.40
2023-03-27T13:28:37.952Z,1.25
2023-03-27T13:31:52.529Z,3.35
2023-03-27T13:34:37.997Z,2.50
2023-03-27T13:37:43.679Z,2.40
2023-03-27T13:40:24.543Z,3.50
2023-03-27T13:43:15.583Z,3.33
2023-03-27T13:45:48.130Z,4.97
2023-03-27T13:49:16.827Z,4.40
2023-03-27T13:52:31.493Z,3.45
2023-03-27T13:55:27.778Z,2.63
2023-03-27T13:58:28.560Z,3.17
2023-03-27T14:01:17.038Z,2.60
2023-03-27T14:04:10.554Z,4.20
2023-03-27T14:07:16.899Z,1.88
2023-03-27T14:10:11.241Z,1.30
2023-03-27T14:13:04.257Z,2.25
2023-03-27T14:16:13.720Z,5.93
2023-03-27T14:19:07.589Z,4.97
2023-03-27T14:21:53.425Z,2.60
2023-03-27T14:24:30.640Z,2.33
2023-03-27T14:27:21.326Z,0.85
2023-03-27T14:30:07.623Z,1.40
2023-03-27T14:32:38.262Z,3.75
2023-03-27T14:35:23.208Z,1.80
2023-03-27T14:38:01.068Z,4.82
2023-03-27T14:40:47.441Z,1.17
2023-03-27T14:43:19.075Z,0.70
2023-03-27T14:45:57.348Z,1.00
2023-03-27T14:48:29.608Z,0.70
2023-03-27T14:51:01.889Z,0.63
2023-03-27T14:53:36.323Z,2.30
2023-03-27T14:56:21.934Z,2.95
2023-03-27T14:59:03.558Z,0.70
2023-03-27T15:01:45.537Z,1.77
2023-03-27T15:04:15.268Z,3.00
2023-03-27T15:06:45.746Z,3.15
2023-03-27T15:09:24.949Z,2.15
2023-03-27T15:12:11.702Z,3.10
2023-03-27T15:14:41.331Z,2.95
2023-03-27T15:17:15.831Z,4.35
2023-03-27T15:19:49.063Z,3.95
2023-03-27T15:22:22.989Z,2.53
2023-03-27T15:24:53.838Z,4.72
2023-03-27T15:27:26.971Z,3.63
2023-03-27T15:29:58.993Z,3.05
2023-03-27T15:32:32.344Z,3.40
2023-03-27T15:35:03.417Z,4.43
2023-03-27T15:37:31.843Z,2.72
2023-03-27T15:40:04.370Z,1.20
2023-03-27T15:42:45.018Z,3.15
2023-03-27T15:45:16.910Z,1.25
2023-03-27T15:48:00.750Z,4.57
2023-03-27T15:50:28.795Z,2.13
2023-03-27T15:52:58.207Z,1.45
2023-03-27T15:55:36.420Z,2.42
2023-03-27T15:58:16.185Z,1.38
2023-03-27T16:00:49.016Z,2.33
2023-03-27T16:03:22.301Z,4.50
2023-03-27T16:05:52.107Z,3.45
2023-03-27T16:08:28.733Z,4.45
2023-03-27T16:10:58.365Z,3.30
2023-03-27T16:13:29.533Z,2.42
2023-03-27T16:15:59.686Z,2.08
2023-03-27T16:18:33.296Z,3.08
2023-03-27T16:21:09.934Z,4.18
2023-03-27T16:23:38.486Z,3.70
2023-03-27T16:26:08.159Z,4.25
2023-03-27T16:28:36.703Z,1.70
2023-03-27T16:31:12.475Z,1.55
2023-03-27T16:33:43.027Z,4.05
2023-03-27T16:36:13.168Z,4.82
2023-03-27T16:38:42.356Z,2.85
2023-03-27T16:41:13.213Z,4.05
2023-03-27T16:43:41.396Z,3.13
2023-03-27T16:46:15.893Z,3.20
2023-03-27T16:48:45.603Z,3.83
2023-03-27T16:51:13.359Z,2.70
2023-03-27T16:53:41.145Z,2.13
2023-03-27T16:56:09.405Z,3.67
2023-03-27T16:58:37.150Z,2.33
2023-03-27T17:01:06.635Z,2.70
2023-03-27T17:03:37.029Z,1.50
2023-03-27T17:06:08.579Z,1.50
2023-03-27T17:08:37.097Z,3.30
2023-03-27T17:11:06.777Z,4.07
2023-03-27T17:13:34.659Z,2.40
2023-03-27T17:16:02.951Z,3.50
2023-03-27T17:18:30.946Z,1.73
2023-03-27T17:20:58.730Z,4.63
2023-03-27T17:23:27.879Z,4.03
2023-03-27T17:25:55.903Z,3.83
2023-03-27T17:28:23.926Z,3.00
2023-03-27T17:31:01.425Z,4.53
2023-03-27T17:33:32.763Z,4.83
2023-03-27T17:36:00.954Z,5.67
2023-03-27T17:38:30.888Z,4.77
2023-03-27T17:40:58.812Z,4.13
2023-03-27T17:43:26.584Z,4.43
2023-03-27T17:45:54.849Z,5.73
2023-03-27T17:48:22.768Z,5.63
2023-03-27T17:51:05.169Z,4.00
2023-03-27T17:53:38.605Z,10.60
2023-03-27T17:56:07.347Z,3.10
2023-03-27T17:58:36.937Z,3.73
2023-03-27T18:01:14.215Z,3.07
2023-03-27T18:03:42.165Z,4.40
2023-03-27T18:06:10.402Z,5.73
2023-03-27T18:08:39.601Z,3.93
2023-03-27T18:11:10.185Z,7.83
2023-03-27T18:13:38.505Z,5.77
2023-03-27T18:16:08.640Z,5.10
2023-03-27T18:18:36.853Z,5.63
2023-03-27T18:21:04.804Z,9.87
2023-03-27T18:23:32.897Z,6.37
2023-03-27T18:26:04.659Z,6.77
2023-03-27T18:28:32.482Z,7.00
2023-03-27T18:31:02.037Z,6.67
2023-03-27T18:33:30.221Z,5.17
2023-03-27T18:35:58.820Z,6.10
2023-03-27T18:38:28.233Z,4.80
2023-03-27T18:40:56.888Z,3.17
2023-03-27T18:43:26.803Z,4.77
2023-03-27T18:45:58.231Z,5.00
2023-03-27T18:48:26.537Z,8.37
2023-03-27T18:50:55.351Z,6.67
2023-03-27T18:53:23.359Z,3.37
2023-03-27T18:55:52.081Z,5.30
2023-03-27T18:58:19.964Z,7.50
2023-03-27T19:00:49.242Z,3.37
2023-03-27T19:03:20.005Z,6.00
2023-03-27T19:05:48.900Z,7.10
2023-03-27T19:08:16.862Z,6.90
2023-03-27T19:10:44.749Z,3.63
2023-03-27T19:13:35.622Z,6.60
2023-03-27T19:16:24.802Z,6.10
2023-03-27T19:19:10.927Z,4.27
2023-03-27T19:21:59.256Z,3.67
2023-03-27T19:24:38.022Z,5.03
2023-03-27T19:27:05.943Z,6.00
2023-03-27T19:29:34.432Z,6.57
2023-03-27T19:32:03.680Z,7.13
2023-03-27T19:34:40.343Z,6.70
2023-03-27T19:37:10.798Z,7.37
2023-03-27T19:39:38.610Z,5.83
2023-03-27T19:42:06.793Z,3.80
2023-03-27T19:44:38.307Z,6.40
2023-03-27T19:47:09.654Z,6.43
2023-03-27T19:49:37.607Z,3.87
2023-03-27T19:52:20.739Z,5.33
2023-03-27T19:54:48.593Z,6.63
2023-03-27T19:57:17.977Z,4.77
2023-03-27T19:59:45.794Z,4.40
2023-03-27T20:02:15.350Z,7.63
2023-03-27T20:04:43.215Z,6.90
2023-03-27T20:07:11.099Z,6.70
2023-03-27T20:09:38.979Z,5.10
2023-03-27T20:12:07.392Z,9.53
2023-03-27T20:14:35.172Z,6.60
2023-03-27T20:17:02.979Z,4.00
2023-03-27T20:19:32.493Z,16.10
2023-03-27T20:22:04.824Z,6.47
2023-03-27T20:24:33.874Z,7.67
2023-03-27T20:27:02.126Z,5.00
2023-03-27T20:29:29.988Z,6.73
2023-03-27T20:31:57.804Z,8.17
2023-03-27T20:34:25.609Z,10.27
2023-03-27T20:36:55.541Z,8.97
2023-03-27T20:39:44.772Z,6.77
2023-03-27T20:42:15.033Z,5.20
2023-03-27T20:44:43.741Z,4.43
2023-03-27T20:47:12.317Z,8.03
2023-03-27T20:49:44.224Z,7.90
2023-03-27T20:52:16.471Z,6.10
2023-03-27T20:54:44.248Z,7.50
2023-03-27T20:57:13.387Z,5.97
2023-03-27T20:59:41.221Z,9.13
2023-03-27T21:02:14.974Z,7.67
2023-03-27T21:04:42.744Z,8.73
2023-03-27T21:07:10.643Z,6.33
2023-03-27T21:09:40.406Z,10.23
2023-03-27T21:12:09.056Z,7.80
2023-03-27T21:14:36.933Z,9.17
2023-03-27T21:17:04.750Z,7.07
2023-03-27T21:19:32.581Z,4.93
2023-03-27T21:22:00.417Z,4.87
2023-03-27T21:24:28.234Z,5.00
2023-03-27T21:26:58.504Z,6.07
2023-03-27T21:29:26.502Z,4.83
2023-03-27T21:31:54.313Z,5.83
2023-03-27T21:34:22.519Z,10.40
2023-03-27T21:36:50.399Z,7.90
2023-03-27T21:39:18.224Z,5.70
2023-03-27T21:41:46.276Z,4.37
2023-03-27T21:44:15.461Z,8.27
2023-03-27T21:46:43.265Z,8.13
2023-03-27T21:49:11.252Z,8.67
2023-03-27T21:51:38.962Z,6.77
2023-03-27T21:54:06.877Z,9.40
2023-03-27T21:56:34.655Z,7.07
2023-03-27T21:59:02.441Z,6.10
2023-03-27T22:01:31.638Z,4.70
2023-03-27T22:04:02.114Z,5.53
2023-03-27T22:06:30.417Z,4.83
2023-03-27T22:08:58.545Z,6.97
2023-03-27T22:11:26.371Z,8.90
2023-03-27T22:13:54.783Z,8.13
2023-03-27T22:16:22.832Z,5.43
2023-03-27T22:18:52.101Z,10.17
2023-03-27T22:21:22.699Z,9.83
2023-03-27T22:23:51.601Z,5.63
2023-03-27T22:26:19.640Z,7.40
2023-03-27T22:28:47.489Z,5.00
2023-03-27T22:31:15.300Z,9.73
2023-03-27T22:33:43.070Z,6.93
2023-03-27T22:36:13.407Z,8.37
2023-03-27T22:38:41.984Z,8.33
2023-03-27T22:41:12.332Z,9.07
2023-03-27T22:43:41.006Z,7.60
2023-03-27T22:46:10.453Z,5.87
2023-03-27T22:48:38.291Z,6.73
2023-03-27T22:51:06.991Z,9.10
2023-03-27T22:53:36.518Z,7.40
2023-03-27T22:56:05.088Z,9.30
2023-03-27T22:58:33.377Z,9.30
2023-03-27T23:01:01.544Z,5.53
2023-03-27T23:03:29.769Z,9.03
2023-03-27T23:05:57.924Z,7.20
2023-03-27T23:08:28.284Z,10.13
2023-03-27T23:10:59.210Z,7.27
2023-03-27T23:13:28.494Z,6.43
2023-03-27T23:15:56.616Z,7.87
2023-03-27T23:18:25.373Z,6.77
2023-03-27T23:20:56.913Z,8.43
2023-03-27T23:23:25.672Z,9.10
2023-03-27T23:25:53.822Z,10.23
2023-03-27T23:28:22.947Z,6.60
2023-03-27T23:30:54.359Z,11.87
2023-03-27T23:33:24.828Z,9.60
2023-03-27T23:35:53.027Z,10.07
2023-03-27T23:38:21.059Z,9.30
2023-03-27T23:40:55.578Z,8.73
2023-03-27T23:43:25.988Z,8.00
2023-03-27T23:45:53.928Z,7.07
2023-03-27T23:48:21.981Z,8.43
2023-03-27T23:50:50.100Z,10.83
2023-03-27T23:53:17.870Z,8.90
2023-03-27T23:55:45.862Z,8.23
2023-03-27T23:58:13.754Z,7.50
